sensor_id;sensor_type;location;lat;lon;timestamp;pressure;altitude;pressure_sealevel;temperature;humidity
52653;BME280;39353;42.864;12.014;2023-02-13T00:02:07;99175.64;;;21.73;42.89
52653;BME280;39353;42.864;12.014;2023-02-13T00:04:36;99172.38;;;21.70;42.89
52653;BME280;39353;42.864;12.014;2023-02-13T00:07:18;99175.88;;;21.67;42.93
52653;BME280;39353;42.864;12.014;2023-02-13T00:09:45;99178.50;;;21.66;42.97
52653;BME280;39353;42.864;12.014;2023-02-13T00:12:26;99175.86;;;21.64;42.95
52653;BME280;39353;42.864;12.014;2023-02-13T00:14:53;99182.39;;;21.63;43.05
52653;BME280;39353;42.864;12.014;2023-02-13T00:17:21;99180.97;;;21.61;43.05
52653;BME280;39353;42.864;12.014;2023-02-13T00:20:03;99179.38;;;21.58;43.16
52653;BME280;39353;42.864;12.014;2023-02-13T00:22:44;99184.38;;;21.56;43.12
52653;BME280;39353;42.864;12.014;2023-02-13T00:25:11;99181.66;;;21.55;43.08
52653;BME280;39353;42.864;12.014;2023-02-13T00:27:39;99186.80;;;21.53;43.19
52653;BME280;39353;42.864;12.014;2023-02-13T00:30:07;99186.92;;;21.50;43.11
52653;BME280;39353;42.864;12.014;2023-02-13T00:32:34;99187.33;;;21.49;43.13
52653;BME280;39353;42.864;12.014;2023-02-13T00:35:01;99189.27;;;21.48;43.13
52653;BME280;39353;42.864;12.014;2023-02-13T00:37:44;99195.08;;;21.45;43.15
52653;BME280;39353;42.864;12.014;2023-02-13T00:40:13;99187.48;;;21.43;43.29
52653;BME280;39353;42.864;12.014;2023-02-13T00:42:54;99184.99;;;21.41;43.23
52653;BME280;39353;42.864;12.014;2023-02-13T00:45:21;99187.85;;;21.38;43.34
52653;BME280;39353;42.864;12.014;2023-02-13T00:47:48;99183.94;;;21.38;43.26
52653;BME280;39353;42.864;12.014;2023-02-13T00:50:16;99182.64;;;21.36;43.25
52653;BME280;39353;42.864;12.014;2023-02-13T00:52:43;99179.90;;;21.35;43.25
52653;BME280;39353;42.864;12.014;2023-02-13T00:55:13;99180.59;;;21.34;43.42
52653;BME280;39353;42.864;12.014;2023-02-13T00:57:40;99185.61;;;21.33;43.42
52653;BME280;39353;42.864;12.014;2023-02-13T01:00:07;99187.50;;;21.31;43.43
52653;BME280;39353;42.864;12.014;2023-02-13T01:02:35;99193.67;;;21.28;43.34
52653;BME280;39353;42.864;12.014;2023-02-13T01:05:04;99190.52;;;21.25;43.43
52653;BME280;39353;42.864;12.014;2023-02-13T01:07:34;99191.83;;;21.22;43.46
52653;BME280;39353;42.864;12.014;2023-02-13T01:10:16;99190.85;;;21.20;43.50
52653;BME280;39353;42.864;12.014;2023-02-13T01:12:43;99188.09;;;21.17;43.62
52653;BME280;39353;42.864;12.014;2023-02-13T01:15:16;99186.50;;;21.12;43.49
52653;BME280;39353;42.864;12.014;2023-02-13T01:17:43;99186.54;;;21.09;43.68
52653;BME280;39353;42.864;12.014;2023-02-13T01:20:26;99188.26;;;21.05;43.68
52653;BME280;39353;42.864;12.014;2023-02-13T01:23:10;99186.66;;;21.00;43.81
52653;BME280;39353;42.864;12.014;2023-02-13T01:25:52;99184.63;;;20.95;43.77
52653;BME280;39353;42.864;12.014;2023-02-13T01:28:20;99181.84;;;20.91;43.88
52653;BME280;39353;42.864;12.014;2023-02-13T01:31:02;99185.27;;;20.89;43.72
52653;BME280;39353;42.864;12.014;2023-02-13T01:33:43;99179.27;;;20.84;43.77
52653;BME280;39353;42.864;12.014;2023-02-13T01:36:14;99182.20;;;20.81;43.92
52653;BME280;39353;42.864;12.014;2023-02-13T01:38:58;99188.45;;;20.77;43.99
52653;BME280;39353;42.864;12.014;2023-02-13T01:41:27;99191.92;;;20.74;44.03
52653;BME280;39353;42.864;12.014;2023-02-13T01:44:43;99198.12;;;20.71;44.06
52653;BME280;39353;42.864;12.014;2023-02-13T01:47:08;99198.13;;;20.66;44.20
52653;BME280;39353;42.864;12.014;2023-02-13T01:50:09;99196.39;;;20.62;44.20
52653;BME280;39353;42.864;12.014;2023-02-13T01:53:47;99193.73;;;20.59;44.29
52653;BME280;39353;42.864;12.014;2023-02-13T01:56:24;99193.47;;;20.55;44.31
52653;BME280;39353;42.864;12.014;2023-02-13T01:59:00;99188.54;;;20.52;44.32
52653;BME280;39353;42.864;12.014;2023-02-13T02:01:30;99189.04;;;20.49;44.40
52653;BME280;39353;42.864;12.014;2023-02-13T02:04:09;99187.86;;;20.47;44.50
52653;BME280;39353;42.864;12.014;2023-02-13T02:06:59;99188.42;;;20.44;44.47
52653;BME280;39353;42.864;12.014;2023-02-13T02:09:37;99190.21;;;20.41;44.51
52653;BME280;39353;42.864;12.014;2023-02-13T02:15:00;99189.67;;;20.36;44.57
52653;BME280;39353;42.864;12.014;2023-02-13T02:17:32;99194.54;;;20.33;44.59
52653;BME280;39353;42.864;12.014;2023-02-13T02:38:07;99188.01;;;20.16;45.00
52653;BME280;39353;42.864;12.014;2023-02-13T02:50:58;99195.38;;;20.07;45.15
52653;BME280;39353;42.864;12.014;2023-02-13T02:56:59;99202.75;;;20.03;45.28
52653;BME280;39353;42.864;12.014;2023-02-13T02:59:31;99198.23;;;20.01;45.29
52653;BME280;39353;42.864;12.014;2023-02-13T03:02:33;99196.40;;;20.00;45.23
52653;BME280;39353;42.864;12.014;2023-02-13T03:05:41;99199.27;;;19.97;45.30
52653;BME280;39353;42.864;12.014;2023-02-13T03:08:29;99201.77;;;19.94;45.42
52653;BME280;39353;42.864;12.014;2023-02-13T03:11:29;99203.54;;;19.93;45.38
52653;BME280;39353;42.864;12.014;2023-02-13T03:14:19;99212.77;;;19.92;45.42
52653;BME280;39353;42.864;12.014;2023-02-13T03:16:49;99211.52;;;19.90;45.45
52653;BME280;39353;42.864;12.014;2023-02-13T03:20:02;99209.55;;;19.90;45.41
52653;BME280;39353;42.864;12.014;2023-02-13T03:28:44;99219.00;;;19.83;45.63
52653;BME280;39353;42.864;12.014;2023-02-13T03:32:12;99219.39;;;19.82;45.62
52653;BME280;39353;42.864;12.014;2023-02-13T03:35:28;99216.71;;;19.79;45.75
52653;BME280;39353;42.864;12.014;2023-02-13T03:41:23;99220.64;;;19.77;45.63
52653;BME280;39353;42.864;12.014;2023-02-13T03:44:10;99222.74;;;19.75;45.56
52653;BME280;39353;42.864;12.014;2023-02-13T03:46:43;99221.28;;;19.74;45.66
52653;BME280;39353;42.864;12.014;2023-02-13T03:49:33;99226.73;;;19.71;45.77
52653;BME280;39353;42.864;12.014;2023-02-13T03:55:33;99226.60;;;19.67;45.83
52653;BME280;39353;42.864;12.014;2023-02-13T03:58:35;99221.21;;;19.65;45.88
52653;BME280;39353;42.864;12.014;2023-02-13T04:01:38;99218.98;;;19.64;45.82
52653;BME280;39353;42.864;12.014;2023-02-13T04:07:17;99219.94;;;19.62;45.90
52653;BME280;39353;42.864;12.014;2023-02-13T04:10:15;99217.89;;;19.59;45.87
52653;BME280;39353;42.864;12.014;2023-02-13T04:13:05;99222.02;;;19.58;45.95
52653;BME280;39353;42.864;12.014;2023-02-13T04:15:56;99224.77;;;19.58;45.96
52653;BME280;39353;42.864;12.014;2023-02-13T04:18:38;99220.17;;;19.57;45.95
52653;BME280;39353;42.864;12.014;2023-02-13T04:21:06;99226.98;;;19.56;46.01
52653;BME280;39353;42.864;12.014;2023-02-13T04:23:35;99225.45;;;19.55;45.95
52653;BME280;39353;42.864;12.014;2023-02-13T04:26:21;99224.65;;;19.54;45.98
52653;BME280;39353;42.864;12.014;2023-02-13T04:28:49;99222.02;;;19.53;46.00
52653;BME280;39353;42.864;12.014;2023-02-13T04:31:30;99222.30;;;19.53;46.00
52653;BME280;39353;42.864;12.014;2023-02-13T04:33:58;99225.70;;;19.52;45.98
52653;BME280;39353;42.864;12.014;2023-02-13T04:36:26;99228.27;;;19.51;46.01
52653;BME280;39353;42.864;12.014;2023-02-13T04:38:54;99228.02;;;19.50;46.08
52653;BME280;39353;42.864;12.014;2023-02-13T04:41:35;99232.41;;;19.48;46.05
52653;BME280;39353;42.864;12.014;2023-02-13T04:44:03;99232.13;;;19.46;46.13
52653;BME280;39353;42.864;12.014;2023-02-13T04:46:44;99235.98;;;19.45;46.12
52653;BME280;39353;42.864;12.014;2023-02-13T04:49:11;99239.75;;;19.44;46.08
52653;BME280;39353;42.864;12.014;2023-02-13T04:51:52;99242.52;;;19.42;46.10
52653;BME280;39353;42.864;12.014;2023-02-13T04:54:20;99241.02;;;19.41;46.20
52653;BME280;39353;42.864;12.014;2023-02-13T04:56:47;99243.00;;;19.39;46.19
52653;BME280;39353;42.864;12.014;2023-02-13T04:59:14;99244.33;;;19.39;46.18
52653;BME280;39353;42.864;12.014;2023-02-13T05:01:55;99241.94;;;19.38;46.19
52653;BME280;39353;42.864;12.014;2023-02-13T05:04:23;99249.63;;;19.37;46.28
52653;BME280;39353;42.864;12.014;2023-02-13T05:06:51;99249.36;;;19.36;46.16
52653;BME280;39353;42.864;12.014;2023-02-13T05:09:19;99251.30;;;19.35;46.26
52653;BME280;39353;42.864;12.014;2023-02-13T05:12:00;99249.89;;;19.33;46.28
52653;BME280;39353;42.864;12.014;2023-02-13T05:14:41;99254.59;;;19.31;46.26
52653;BME280;39353;42.864;12.014;2023-02-13T05:17:10;99260.48;;;19.31;46.33
52653;BME280;39353;42.864;12.014;2023-02-13T05:19:40;99260.66;;;19.31;46.32
52653;BME280;39353;42.864;12.014;2023-02-13T05:22:23;99262.69;;;19.29;46.35
52653;BME280;39353;42.864;12.014;2023-02-13T05:25:23;99262.92;;;19.27;46.29
52653;BME280;39353;42.864;12.014;2023-02-13T05:28:09;99264.41;;;19.27;46.30
52653;BME280;39353;42.864;12.014;2023-02-13T05:31:32;99264.69;;;19.26;46.28
52653;BME280;39353;42.864;12.014;2023-02-13T05:34:00;99266.73;;;19.25;46.35
52653;BME280;39353;42.864;12.014;2023-02-13T05:36:42;99265.91;;;19.25;46.44
52653;BME280;39353;42.864;12.014;2023-02-13T05:39:25;99262.31;;;19.24;46.32
52653;BME280;39353;42.864;12.014;2023-02-13T05:42:07;99264.25;;;19.23;46.37
52653;BME280;39353;42.864;12.014;2023-02-13T05:44:48;99271.70;;;19.23;46.36
52653;BME280;39353;42.864;12.014;2023-02-13T05:47:29;99269.83;;;19.22;46.43
52653;BME280;39353;42.864;12.014;2023-02-13T05:50:12;99276.64;;;19.21;46.38
52653;BME280;39353;42.864;12.014;2023-02-13T05:52:41;99279.67;;;19.20;46.38
52653;BME280;39353;42.864;12.014;2023-02-13T05:55:09;99285.23;;;19.19;46.45
52653;BME280;39353;42.864;12.014;2023-02-13T05:57:55;99286.01;;;19.18;46.40
52653;BME280;39353;42.864;12.014;2023-02-13T06:00:24;99284.98;;;19.17;46.43
52653;BME280;39353;42.864;12.014;2023-02-13T06:03:06;99288.35;;;19.17;46.53
52653;BME280;39353;42.864;12.014;2023-02-13T06:05:47;99290.16;;;19.15;46.48
52653;BME280;39353;42.864;12.014;2023-02-13T06:08:28;99289.38;;;19.14;46.47
52653;BME280;39353;42.864;12.014;2023-02-13T06:10:55;99288.38;;;19.13;46.53
52653;BME280;39353;42.864;12.014;2023-02-13T06:13:36;99288.17;;;19.12;46.57
52653;BME280;39353;42.864;12.014;2023-02-13T06:16:07;99291.79;;;19.10;46.65
52653;BME280;39353;42.864;12.014;2023-02-13T06:18:49;99290.84;;;19.09;46.59
52653;BME280;39353;42.864;12.014;2023-02-13T06:21:16;99291.83;;;19.08;46.59
52653;BME280;39353;42.864;12.014;2023-02-13T06:23:56;99294.31;;;19.07;46.58
52653;BME280;39353;42.864;12.014;2023-02-13T06:26:25;99295.33;;;19.06;46.65
52653;BME280;39353;42.864;12.014;2023-02-13T06:28:52;99294.95;;;19.05;46.70
52653;BME280;39353;42.864;12.014;2023-02-13T06:31:19;99294.85;;;19.04;46.68
52653;BME280;39353;42.864;12.014;2023-02-13T06:34:00;99295.27;;;19.03;46.66
52653;BME280;39353;42.864;12.014;2023-02-13T06:36:41;99292.61;;;19.03;46.68
52653;BME280;39353;42.864;12.014;2023-02-13T06:39:22;99296.62;;;19.03;46.72
52653;BME280;39353;42.864;12.014;2023-02-13T06:42:03;99296.10;;;19.02;46.74
52653;BME280;39353;42.864;12.014;2023-02-13T06:44:30;99300.45;;;19.02;46.72
52653;BME280;39353;42.864;12.014;2023-02-13T06:47:12;99305.02;;;19.02;46.76
52653;BME280;39353;42.864;12.014;2023-02-13T06:49:41;99302.91;;;19.01;46.75
52653;BME280;39353;42.864;12.014;2023-02-13T06:52:09;99307.77;;;19.02;46.73
52653;BME280;39353;42.864;12.014;2023-02-13T06:54:51;99307.88;;;19.02;46.73
52653;BME280;39353;42.864;12.014;2023-02-13T06:57:18;99306.89;;;19.03;46.73
52653;BME280;39353;42.864;12.014;2023-02-13T06:59:46;99306.38;;;19.03;46.78
52653;BME280;39353;42.864;12.014;2023-02-13T07:02:14;99313.34;;;19.02;46.78
52653;BME280;39353;42.864;12.014;2023-02-13T07:04:55;99313.98;;;19.01;46.87
52653;BME280;39353;42.864;12.014;2023-02-13T07:07:22;99315.39;;;19.02;46.94
52653;BME280;39353;42.864;12.014;2023-02-13T07:10:08;99319.16;;;19.02;46.95
52653;BME280;39353;42.864;12.014;2023-02-13T07:12:50;99319.95;;;19.03;47.00
52653;BME280;39353;42.864;12.014;2023-02-13T07:15:18;99323.39;;;19.03;46.93
52653;BME280;39353;42.864;12.014;2023-02-13T07:17:46;99329.02;;;19.03;46.71
52653;BME280;39353;42.864;12.014;2023-02-13T07:20:28;99331.48;;;19.02;46.58
52653;BME280;39353;42.864;12.014;2023-02-13T07:23:04;99330.77;;;19.04;46.61
52653;BME280;39353;42.864;12.014;2023-02-13T07:25:34;99326.55;;;19.06;46.69
52653;BME280;39353;42.864;12.014;2023-02-13T07:28:15;99328.39;;;19.07;46.64
52653;BME280;39353;42.864;12.014;2023-02-13T07:30:57;99330.55;;;19.09;46.66
52653;BME280;39353;42.864;12.014;2023-02-13T07:33:47;99329.60;;;19.10;46.31
52653;BME280;39353;42.864;12.014;2023-02-13T07:36:16;99332.23;;;19.10;46.21
52653;BME280;39353;42.864;12.014;2023-02-13T07:38:56;99334.77;;;19.12;46.25
52653;BME280;39353;42.864;12.014;2023-02-13T07:41:38;99335.29;;;19.14;46.39
52653;BME280;39353;42.864;12.014;2023-02-13T07:44:07;99332.77;;;19.15;46.34
52653;BME280;39353;42.864;12.014;2023-02-13T07:46:34;99333.45;;;19.16;46.21
52653;BME280;39353;42.864;12.014;2023-02-13T07:49:15;99337.50;;;19.17;46.14
52653;BME280;39353;42.864;12.014;2023-02-13T07:51:43;99334.69;;;19.17;46.25
52653;BME280;39353;42.864;12.014;2023-02-13T07:54:24;99334.14;;;19.17;46.08
52653;BME280;39353;42.864;12.014;2023-02-13T07:56:51;99336.05;;;19.17;46.06
52653;BME280;39353;42.864;12.014;2023-02-13T07:59:33;99338.68;;;19.18;46.03
52653;BME280;39353;42.864;12.014;2023-02-13T08:02:15;99335.77;;;19.16;45.63
52653;BME280;39353;42.864;12.014;2023-02-13T08:04:43;99338.52;;;19.16;45.84
52653;BME280;39353;42.864;12.014;2023-02-13T08:07:26;99343.83;;;19.14;45.25
52653;BME280;39353;42.864;12.014;2023-02-13T08:09:53;99347.95;;;19.12;45.60
52653;BME280;39353;42.864;12.014;2023-02-13T08:12:39;99350.59;;;19.13;45.79
52653;BME280;39353;42.864;12.014;2023-02-13T08:15:23;99355.67;;;19.15;46.15
52653;BME280;39353;42.864;12.014;2023-02-13T08:17:51;99357.81;;;19.17;46.34
52653;BME280;39353;42.864;12.014;2023-02-13T08:20:32;99356.96;;;19.18;45.93
52653;BME280;39353;42.864;12.014;2023-02-13T08:23:08;99356.34;;;19.19;46.21
52653;BME280;39353;42.864;12.014;2023-02-13T08:25:49;99356.20;;;19.22;46.55
52653;BME280;39353;42.864;12.014;2023-02-13T08:28:34;99352.56;;;19.25;46.55
52653;BME280;39353;42.864;12.014;2023-02-13T08:31:01;99350.32;;;19.27;46.55
52653;BME280;39353;42.864;12.014;2023-02-13T08:33:41;99353.41;;;19.31;46.50
52653;BME280;39353;42.864;12.014;2023-02-13T08:36:23;99351.45;;;19.32;46.35
52653;BME280;39353;42.864;12.014;2023-02-13T08:39:04;99354.38;;;19.30;45.83
52653;BME280;39353;42.864;12.014;2023-02-13T08:41:31;99352.42;;;19.30;46.09
52653;BME280;39353;42.864;12.014;2023-02-13T08:44:13;99349.60;;;19.31;46.19
52653;BME280;39353;42.864;12.014;2023-02-13T08:46:54;99350.80;;;19.31;46.12
52653;BME280;39353;42.864;12.014;2023-02-13T08:49:36;99351.30;;;19.30;46.15
52653;BME280;39353;42.864;12.014;2023-02-13T08:52:04;99349.64;;;19.29;46.29
52653;BME280;39353;42.864;12.014;2023-02-13T08:54:33;99350.83;;;19.28;46.26
52653;BME280;39353;42.864;12.014;2023-02-13T08:57:15;99354.51;;;19.27;46.27
52653;BME280;39353;42.864;12.014;2023-02-13T08:59:43;99354.06;;;19.28;46.44
52653;BME280;39353;42.864;12.014;2023-02-13T09:02:10;99352.49;;;19.31;46.52
52653;BME280;39353;42.864;12.014;2023-02-13T09:04:39;99356.62;;;19.33;46.60
52653;BME280;39353;42.864;12.014;2023-02-13T09:07:20;99360.25;;;19.34;46.71
52653;BME280;39353;42.864;12.014;2023-02-13T09:09:48;99357.63;;;19.35;46.94
52653;BME280;39353;42.864;12.014;2023-02-13T09:12:29;99356.74;;;19.37;47.28
52653;BME280;39353;42.864;12.014;2023-02-13T09:15:12;99354.60;;;19.38;47.38
52653;BME280;39353;42.864;12.014;2023-02-13T09:17:55;99354.63;;;19.39;47.58
52653;BME280;39353;42.864;12.014;2023-02-13T09:20:22;99355.05;;;19.40;47.93
52653;BME280;39353;42.864;12.014;2023-02-13T09:22:49;99353.31;;;19.41;48.28
52653;BME280;39353;42.864;12.014;2023-02-13T09:25:17;99355.15;;;19.41;48.48
52653;BME280;39353;42.864;12.014;2023-02-13T09:27:46;99356.73;;;19.41;49.14
52653;BME280;39353;42.864;12.014;2023-02-13T09:30:27;99358.98;;;19.44;49.96
52653;BME280;39353;42.864;12.014;2023-02-13T09:33:10;99355.58;;;19.47;50.63
52653;BME280;39353;42.864;12.014;2023-02-13T09:35:41;99357.92;;;19.49;51.25
52653;BME280;39353;42.864;12.014;2023-02-13T09:38:23;99360.03;;;19.48;51.25
52653;BME280;39353;42.864;12.014;2023-02-13T09:40:58;99359.94;;;19.47;51.54
52653;BME280;39353;42.864;12.014;2023-02-13T09:43:51;99359.30;;;19.46;51.64
52653;BME280;39353;42.864;12.014;2023-02-13T09:46:34;99360.39;;;19.45;51.52
52653;BME280;39353;42.864;12.014;2023-02-13T09:49:14;99360.80;;;19.44;51.55
52653;BME280;39353;42.864;12.014;2023-02-13T09:51:45;99365.93;;;19.44;51.35
52653;BME280;39353;42.864;12.014;2023-02-13T09:54:16;99366.23;;;19.44;51.29
52653;BME280;39353;42.864;12.014;2023-02-13T10:06:07;99361.61;;;19.40;50.82
52653;BME280;39353;42.864;12.014;2023-02-13T10:12:00;99356.33;;;19.39;50.50
52653;BME280;39353;42.864;12.014;2023-02-13T10:15:07;99359.94;;;19.37;50.44
52653;BME280;39353;42.864;12.014;2023-02-13T10:17:44;99360.01;;;19.37;50.15
52653;BME280;39353;42.864;12.014;2023-02-13T10:22:58;99353.84;;;19.35;49.81
52653;BME280;39353;42.864;12.014;2023-02-13T10:25:53;99352.52;;;19.32;49.36
52653;BME280;39353;42.864;12.014;2023-02-13T10:31:38;99349.81;;;19.29;48.73
52653;BME280;39353;42.864;12.014;2023-02-13T10:34:24;99349.52;;;19.26;48.58
52653;BME280;39353;42.864;12.014;2023-02-13T10:37:17;99350.27;;;19.25;48.51
52653;BME280;39353;42.864;12.014;2023-02-13T10:39:51;99344.43;;;19.23;48.42
52653;BME280;39353;42.864;12.014;2023-02-13T10:42:42;99346.61;;;19.22;48.03
52653;BME280;39353;42.864;12.014;2023-02-13T10:56:07;99328.29;;;19.11;46.33
52653;BME280;39353;42.864;12.014;2023-02-13T10:59:17;99324.73;;;19.09;46.70
52653;BME280;39353;42.864;12.014;2023-02-13T11:02:33;99325.35;;;19.10;46.90
52653;BME280;39353;42.864;12.014;2023-02-13T11:05:27;99326.38;;;19.12;46.82
52653;BME280;39353;42.864;12.014;2023-02-13T11:08:40;99320.29;;;19.13;47.17
52653;BME280;39353;42.864;12.014;2023-02-13T11:14:35;99316.03;;;19.19;48.39
52653;BME280;39353;42.864;12.014;2023-02-13T11:17:40;99319.02;;;19.23;48.82
52653;BME280;39353;42.864;12.014;2023-02-13T11:20:38;99314.87;;;19.30;48.94
52653;BME280;39353;42.864;12.014;2023-02-13T11:26:07;99307.79;;;19.44;48.47
52653;BME280;39353;42.864;12.014;2023-02-13T11:29:16;99307.34;;;19.50;48.57
52653;BME280;39353;42.864;12.014;2023-02-13T11:32:18;99297.05;;;19.59;48.27
52653;BME280;39353;42.864;12.014;2023-02-13T11:45:20;99282.59;;;19.91;47.11
52653;BME280;39353;42.864;12.014;2023-02-13T11:51:43;99275.91;;;20.07;46.80
52653;BME280;39353;42.864;12.014;2023-02-13T11:58:30;99264.01;;;20.26;45.96
52653;BME280;39353;42.864;12.014;2023-02-13T12:04:14;99258.61;;;20.37;45.97
52653;BME280;39353;42.864;12.014;2023-02-13T12:07:29;99260.20;;;20.42;46.02
52653;BME280;39353;42.864;12.014;2023-02-13T12:10:51;99261.88;;;20.46;45.67
52653;BME280;39353;42.864;12.014;2023-02-13T12:13:38;99261.63;;;20.49;44.95
52653;BME280;39353;42.864;12.014;2023-02-13T12:16:37;99256.48;;;20.52;44.83
52653;BME280;39353;42.864;12.014;2023-02-13T12:19:46;99253.86;;;20.58;44.69
52653;BME280;39353;42.864;12.014;2023-02-13T12:26:41;99240.13;;;20.66;44.20
52653;BME280;39353;42.864;12.014;2023-02-13T12:29:44;99235.86;;;20.68;44.00
52653;BME280;39353;42.864;12.014;2023-02-13T12:32:55;99230.05;;;20.68;43.78
52653;BME280;39353;42.864;12.014;2023-02-13T12:35:31;99229.71;;;20.68;43.76
52653;BME280;39353;42.864;12.014;2023-02-13T12:48:06;99224.39;;;20.81;42.77
52653;BME280;39353;42.864;12.014;2023-02-13T13:03:27;99209.65;;;20.81;40.64
52653;BME280;39353;42.864;12.014;2023-02-13T13:09:54;99197.63;;;20.80;40.58
52653;BME280;39353;42.864;12.014;2023-02-13T13:25:21;99185.17;;;20.88;41.97
52653;BME280;39353;42.864;12.014;2023-02-13T13:31:55;99185.06;;;20.99;41.88
52653;BME280;39353;42.864;12.014;2023-02-13T13:34:45;99192.17;;;21.03;41.91
52653;BME280;39353;42.864;12.014;2023-02-13T13:37:45;99192.64;;;21.06;41.80
52653;BME280;39353;42.864;12.014;2023-02-13T13:40:53;99190.69;;;21.10;41.67
52653;BME280;39353;42.864;12.014;2023-02-13T13:49:57;99195.06;;;21.16;41.57
52653;BME280;39353;42.864;12.014;2023-02-13T13:53:06;99193.86;;;21.20;41.65
52653;BME280;39353;42.864;12.014;2023-02-13T13:56:11;99196.65;;;21.24;41.36
52653;BME280;39353;42.864;12.014;2023-02-13T13:58:58;99195.77;;;21.29;41.33
52653;BME280;39353;42.864;12.014;2023-02-13T14:01:43;99196.94;;;21.33;41.42
52653;BME280;39353;42.864;12.014;2023-02-13T14:09:48;99192.58;;;21.43;42.06
52653;BME280;39353;42.864;12.014;2023-02-13T14:18:47;99194.15;;;21.52;41.58
52653;BME280;39353;42.864;12.014;2023-02-13T14:21:21;99189.39;;;21.54;41.60
52653;BME280;39353;42.864;12.014;2023-02-13T14:23:50;99191.76;;;21.55;41.78
52653;BME280;39353;42.864;12.014;2023-02-13T14:32:51;99188.91;;;21.56;41.74
52653;BME280;39353;42.864;12.014;2023-02-13T14:38:24;99189.80;;;21.58;41.79
52653;BME280;39353;42.864;12.014;2023-02-13T14:48:07;99188.76;;;21.52;41.76
52653;BME280;39353;42.864;12.014;2023-02-13T14:50:54;99186.06;;;21.51;41.88
52653;BME280;39353;42.864;12.014;2023-02-13T14:53:55;99184.54;;;21.51;41.88
52653;BME280;39353;42.864;12.014;2023-02-13T14:59:58;99188.31;;;21.44;42.01
52653;BME280;39353;42.864;12.014;2023-02-13T15:03:19;99185.17;;;21.39;42.19
52653;BME280;39353;42.864;12.014;2023-02-13T15:06:12;99183.58;;;21.21;38.75
52653;BME280;39353;42.864;12.014;2023-02-13T15:09:38;99184.62;;;20.97;36.59
52653;BME280;39353;42.864;12.014;2023-02-13T15:12:32;99178.67;;;20.74;33.88
52653;BME280;39353;42.864;12.014;2023-02-13T15:15:28;99173.52;;;20.54;32.57
52653;BME280;39353;42.864;12.014;2023-02-13T15:18:49;99178.13;;;20.29;30.99
52653;BME280;39353;42.864;12.014;2023-02-13T15:24:58;99177.86;;;19.98;32.44
52653;BME280;39353;42.864;12.014;2023-02-13T15:27:44;99177.91;;;20.07;35.07
52653;BME280;39353;42.864;12.014;2023-02-13T15:30:31;99176.45;;;20.23;36.03
52653;BME280;39353;42.864;12.014;2023-02-13T15:33:21;99173.30;;;20.38;36.63
52653;BME280;39353;42.864;12.014;2023-02-13T15:36:25;99175.48;;;20.47;37.21
52653;BME280;39353;42.864;12.014;2023-02-13T15:39:03;99172.92;;;20.53;37.26
52653;BME280;39353;42.864;12.014;2023-02-13T15:45:15;99171.64;;;20.61;37.63
52653;BME280;39353;42.864;12.014;2023-02-13T15:51:22;99165.30;;;20.61;38.04
52653;BME280;39353;42.864;12.014;2023-02-13T15:57:03;99172.33;;;20.59;38.27
52653;BME280;39353;42.864;12.014;2023-02-13T16:03:18;99180.69;;;20.55;38.85
52653;BME280;39353;42.864;12.014;2023-02-13T16:06:06;99181.98;;;20.55;38.98
52653;BME280;39353;42.864;12.014;2023-02-13T16:12:24;99189.59;;;20.53;38.97
52653;BME280;39353;42.864;12.014;2023-02-13T16:15:30;99187.82;;;20.55;39.33
52653;BME280;39353;42.864;12.014;2023-02-13T16:18:19;99190.81;;;20.56;39.44
52653;BME280;39353;42.864;12.014;2023-02-13T16:20:54;99189.66;;;20.55;39.52
52653;BME280;39353;42.864;12.014;2023-02-13T16:26:27;99191.21;;;20.55;39.38
52653;BME280;39353;42.864;12.014;2023-02-13T16:29:17;99190.14;;;20.56;39.46
52653;BME280;39353;42.864;12.014;2023-02-13T16:31:46;99190.85;;;20.53;39.56
52653;BME280;39353;42.864;12.014;2023-02-13T16:34:33;99193.80;;;20.53;39.87
52653;BME280;39353;42.864;12.014;2023-02-13T16:37:30;99191.51;;;20.51;40.19
52653;BME280;39353;42.864;12.014;2023-02-13T16:49:04;99199.23;;;20.52;39.86
52653;BME280;39353;42.864;12.014;2023-02-13T16:52:16;99200.61;;;20.62;40.05
52653;BME280;39353;42.864;12.014;2023-02-13T16:55:39;99209.42;;;20.74;40.29
52653;BME280;39353;42.864;12.014;2023-02-13T16:58:27;99210.70;;;20.81;40.19
52653;BME280;39353;42.864;12.014;2023-02-13T17:01:32;99216.28;;;20.88;40.16
52653;BME280;39353;42.864;12.014;2023-02-13T17:04:23;99221.59;;;20.92;40.29
52653;BME280;39353;42.864;12.014;2023-02-13T17:06:54;99226.19;;;20.93;40.28
52653;BME280;39353;42.864;12.014;2023-02-13T17:09:22;99227.34;;;20.94;40.36
52653;BME280;39353;42.864;12.014;2023-02-13T17:12:51;99236.66;;;20.97;40.35
52653;BME280;39353;42.864;12.014;2023-02-13T17:18:30;99245.23;;;21.00;40.46
52653;BME280;39353;42.864;12.014;2023-02-13T17:21:16;99245.42;;;20.98;40.51
52653;BME280;39353;42.864;12.014;2023-02-13T17:24:21;99241.33;;;20.99;40.54
52653;BME280;39353;42.864;12.014;2023-02-13T17:27:07;99241.83;;;21.05;40.48
52653;BME280;39353;42.864;12.014;2023-02-13T17:29:53;99244.28;;;21.11;40.53
52653;BME280;39353;42.864;12.014;2023-02-13T17:33:05;99248.05;;;21.16;40.60
52653;BME280;39353;42.864;12.014;2023-02-13T17:35:51;99249.35;;;21.19;40.52
52653;BME280;39353;42.864;12.014;2023-02-13T17:38:20;99250.31;;;21.21;40.57
52653;BME280;39353;42.864;12.014;2023-02-13T17:40:48;99253.81;;;21.24;40.59
52653;BME280;39353;42.864;12.014;2023-02-13T17:43:36;99252.93;;;21.27;40.65
52653;BME280;39353;42.864;12.014;2023-02-13T17:46:03;99254.35;;;21.29;40.68
52653;BME280;39353;42.864;12.014;2023-02-13T17:52:12;99257.99;;;21.32;41.24
52653;BME280;39353;42.864;12.014;2023-02-13T17:54:59;99250.50;;;21.34;41.47
52653;BME280;39353;42.864;12.014;2023-02-13T17:57:26;99252.77;;;21.34;41.53